Time;durP1;ratioP1;P1;durP2;ratioP2;P2;SDS_P1;SDS_P2;PMS_P1;PMS_P2;Temp;Humidity;BMP_temperature;BMP_pressure;BME280_temperature;BME280_humidity;BME280_pressure;Samples;Min_cycle;Max_cycle;Signal;HPM_P1;HPM_P2
2022/11/18 00:01:21;;;;;;;0.40;0.40;;;3.10;99.90;;;;;;4937895;28;20195;-94
2022/11/18 00:03:48;;;;;;;0.43;0.43;;;3.10;99.90;;;;;;5008697;28;20525;-95
2022/11/18 00:06:19;;;;;;;0.50;0.50;;;3.10;99.90;;;;;;5006193;28;20831;-93
2022/11/18 00:08:44;;;;;;;0.40;0.40;;;3.20;99.90;;;;;;4927737;29;20483;-93
2022/11/18 00:14:17;;;;;;;0.40;0.40;;;3.10;99.90;;;;;;4940071;28;20274;-96
2022/11/18 00:16:43;;;;;;;0.40;0.40;;;3.10;99.90;;;;;;5003591;28;20426;-96
2022/11/18 00:19:08;;;;;;;0.50;0.50;;;3.10;99.90;;;;;;4979336;28;20469;-95
2022/11/18 00:21:34;;;;;;;0.40;0.40;;;3.10;99.90;;;;;;4938517;28;20195;-93
2022/11/18 00:23:59;;;;;;;0.50;0.50;;;3.10;99.90;;;;;;4939799;28;20191;-95
2022/11/18 00:26:25;;;;;;;0.43;0.43;;;3.10;99.90;;;;;;5021851;28;20199;-94
2022/11/18 00:28:50;;;;;;;0.40;0.40;;;3.00;99.90;;;;;;4938393;29;20231;-93
2022/11/18 00:31:16;;;;;;;0.40;0.40;;;3.10;99.90;;;;;;4939998;28;20265;-96
2022/11/18 00:33:41;;;;;;;0.50;0.50;;;3.10;99.90;;;;;;4936877;29;20325;-94
2022/11/18 00:36:10;;;;;;;0.50;0.50;;;3.00;99.90;;;;;;4940711;28;20270;-95
2022/11/18 00:38:36;;;;;;;0.50;0.50;;;3.00;99.90;;;;;;5002011;28;20283;-95
2022/11/18 00:41:10;;;;;;;0.40;0.40;;;3.00;99.90;;;;;;4933612;28;20547;-92
2022/11/18 00:43:36;;;;;;;0.40;0.40;;;3.00;99.90;;;;;;5021138;28;20454;-93
2022/11/18 00:46:03;;;;;;;0.40;0.40;;;3.00;99.90;;;;;;4985767;28;20463;-93
2022/11/18 00:48:29;;;;;;;0.47;0.47;;;3.00;99.90;;;;;;4935132;28;20495;-96
2022/11/18 00:50:56;;;;;;;0.40;0.40;;;2.90;99.90;;;;;;4938859;28;20518;-96
2022/11/18 00:53:24;;;;;;;0.40;0.40;;;2.90;99.90;;;;;;4940474;28;20187;-95
2022/11/18 00:55:50;;;;;;;0.40;0.40;;;2.90;99.90;;;;;;4944732;28;20455;-96
2022/11/18 00:58:16;;;;;;;0.50;0.50;;;2.90;99.90;;;;;;4929425;28;20514;-96
2022/11/18 01:00:43;;;;;;;0.40;0.40;;;2.90;99.90;;;;;;4940450;28;20514;-95
2022/11/18 01:03:10;;;;;;;0.40;0.40;;;2.90;99.90;;;;;;4940826;28;20838;-96
2022/11/18 01:05:37;;;;;;;0.40;0.40;;;2.90;99.90;;;;;;4940638;29;20814;-93
2022/11/18 01:08:04;;;;;;;0.40;0.40;;;2.80;99.90;;;;;;4938285;29;20837;-96
2022/11/18 01:10:29;;;;;;;0.40;0.40;;;2.90;99.90;;;;;;4939611;29;20505;-96
2022/11/18 01:15:41;;;;;;;0.40;0.40;;;2.80;99.90;;;;;;4934443;29;20194;-96
2022/11/18 01:18:07;;;;;;;0.40;0.40;;;2.80;99.90;;;;;;4935899;29;20447;-96
2022/11/18 01:20:33;;;;;;;0.50;0.50;;;2.80;99.90;;;;;;4950847;28;20450;-96
2022/11/18 01:22:58;;;;;;;0.40;0.40;;;2.80;99.90;;;;;;4935646;28;20542;-95
2022/11/18 01:25:24;;;;;;;0.40;0.40;;;2.80;99.90;;;;;;4937710;28;20478;-93
2022/11/18 01:27:49;;;;;;;0.40;0.40;;;2.80;99.90;;;;;;4998310;28;20246;-94
2022/11/18 01:30:15;;;;;;;0.40;0.40;;;2.80;99.90;;;;;;5016493;28;20242;-95
2022/11/18 01:32:42;;;;;;;0.43;0.43;;;2.80;99.90;;;;;;4993252;28;20188;-92
2022/11/18 01:35:08;;;;;;;0.40;0.40;;;2.90;99.90;;;;;;4933779;28;20460;-93
2022/11/18 01:37:33;;;;;;;0.40;0.40;;;2.80;99.90;;;;;;4926358;28;20540;-94
2022/11/18 01:39:59;;;;;;;0.37;0.37;;;2.80;99.90;;;;;;4931791;29;20889;-96
2022/11/18 01:42:25;;;;;;;0.40;0.40;;;2.80;99.90;;;;;;5016121;28;20652;-96
2022/11/18 01:45:20;;;;;;;0.50;0.50;;;2.70;99.90;;;;;;4983558;28;20196;-96
2022/11/18 01:47:54;;;;;;;0.50;0.50;;;2.60;99.90;;;;;;5010126;28;20231;-96
2022/11/18 01:50:22;;;;;;;0.40;0.40;;;2.60;99.90;;;;;;4936093;29;20463;-96
2022/11/18 01:52:48;;;;;;;0.50;0.50;;;2.50;99.90;;;;;;4923783;29;20451;-95
2022/11/18 01:55:25;;;;;;;0.53;0.53;;;2.50;99.90;;;;;;4934460;28;20462;-96
2022/11/18 01:57:58;;;;;;;0.30;0.30;;;2.50;99.90;;;;;;4996305;28;20444;-95
2022/11/18 02:00:23;;;;;;;0.50;0.50;;;2.50;99.90;;;;;;4944257;28;20458;-96
2022/11/18 02:02:50;;;;;;;0.50;0.50;;;2.50;99.90;;;;;;4931795;28;20451;-95
2022/11/18 02:05:16;;;;;;;0.50;0.50;;;2.50;99.90;;;;;;4935438;28;20687;-96
2022/11/18 02:07:42;;;;;;;0.40;0.40;;;2.50;99.90;;;;;;4935280;28;20566;-95
2022/11/18 02:10:15;;;;;;;0.50;0.50;;;2.50;99.90;;;;;;4933899;28;20558;-94
2022/11/18 02:12:41;;;;;;;0.40;0.40;;;2.50;99.90;;;;;;4933665;28;20446;-94
2022/11/18 02:15:07;;;;;;;0.40;0.40;;;2.50;99.90;;;;;;4931631;28;20455;-93
2022/11/18 02:17:43;;;;;;;0.37;0.37;;;2.60;99.90;;;;;;4934105;29;20561;-95
2022/11/18 02:20:08;;;;;;;0.50;0.50;;;2.60;99.90;;;;;;4993733;28;20950;-94
2022/11/18 02:23:14;;;;;;;0.50;0.50;;;2.60;99.90;;;;;;4933702;29;20487;-95
2022/11/18 02:26:16;;;;;;;0.40;0.40;;;2.60;99.90;;;;;;4929002;29;20191;-95
2022/11/18 02:29:08;;;;;;;0.40;0.40;;;2.60;99.90;;;;;;4934572;28;20494;-95
2022/11/18 02:31:52;;;;;;;0.40;0.40;;;2.60;99.90;;;;;;4979332;28;20440;-95
2022/11/18 02:34:35;;;;;;;0.50;0.50;;;2.60;99.90;;;;;;4998895;28;20820;-95
2022/11/18 02:37:13;;;;;;;0.50;0.50;;;2.60;99.90;;;;;;4932702;29;20542;-94
2022/11/18 02:39:46;;;;;;;0.40;0.40;;;2.60;99.90;;;;;;5016344;28;20526;-94
2022/11/18 02:42:14;;;;;;;0.40;0.40;;;2.60;99.90;;;;;;4936657;28;20557;-91
2022/11/18 02:44:45;;;;;;;0.40;0.40;;;2.70;99.90;;;;;;4985912;28;20458;-93
2022/11/18 02:47:14;;;;;;;0.40;0.40;;;2.70;99.90;;;;;;4937896;28;20461;-94
2022/11/18 02:49:45;;;;;;;0.50;0.50;;;2.60;99.90;;;;;;4933820;29;20461;-94
2022/11/18 02:52:13;;;;;;;0.40;0.40;;;2.60;99.90;;;;;;4935739;28;20502;-95
2022/11/18 02:54:42;;;;;;;0.50;0.50;;;2.60;99.90;;;;;;4991066;28;20963;-96
2022/11/18 02:57:08;;;;;;;0.47;0.47;;;2.60;99.90;;;;;;4935518;29;21028;-94
2022/11/18 02:59:33;;;;;;;0.40;0.40;;;2.60;99.90;;;;;;4935704;28;20454;-94
2022/11/18 03:01:59;;;;;;;0.40;0.40;;;2.60;99.90;;;;;;4938849;29;20447;-94
2022/11/18 03:04:25;;;;;;;0.40;0.40;;;2.60;99.90;;;;;;4936229;29;20258;-95
2022/11/18 03:07:13;;;;;;;0.40;0.40;;;2.60;99.90;;;;;;4936841;28;20191;-96
2022/11/18 03:09:42;;;;;;;0.40;0.40;;;2.60;99.90;;;;;;4931824;29;20451;-96
2022/11/18 03:12:41;;;;;;;0.47;0.47;;;2.50;99.90;;;;;;4932132;28;20440;-94
2022/11/18 03:15:10;;;;;;;0.50;0.50;;;2.60;99.90;;;;;;5011095;28;20455;-95
2022/11/18 03:18:04;;;;;;;0.40;0.40;;;2.60;99.90;;;;;;4931276;28;20513;-96
2022/11/18 03:20:42;;;;;;;0.40;0.40;;;2.50;99.90;;;;;;4995059;28;20493;-92
2022/11/18 03:23:19;;;;;;;0.50;0.50;;;2.50;99.90;;;;;;4934381;28;20428;-96
2022/11/18 03:25:56;;;;;;;0.40;0.40;;;2.50;99.90;;;;;;4931520;28;20455;-94
2022/11/18 03:28:49;;;;;;;0.50;0.50;;;2.50;99.90;;;;;;4946761;28;20518;-96
2022/11/18 03:31:34;;;;;;;0.40;0.40;;;2.50;99.90;;;;;;4974576;28;20951;-93
2022/11/18 03:34:07;;;;;;;0.40;0.40;;;2.50;99.90;;;;;;4984607;28;20889;-95
2022/11/18 03:36:38;;;;;;;0.47;0.47;;;2.50;99.90;;;;;;4913433;28;20452;-93
2022/11/18 03:39:06;;;;;;;0.50;0.50;;;2.60;99.90;;;;;;4920110;28;20492;-91
2022/11/18 03:41:36;;;;;;;0.50;0.50;;;2.60;99.90;;;;;;4930908;28;20562;-92
2022/11/18 03:44:12;;;;;;;0.50;0.50;;;2.60;99.90;;;;;;4991600;28;20467;-93
2022/11/18 03:46:42;;;;;;;0.43;0.43;;;2.60;99.90;;;;;;4940185;28;20526;-90
2022/11/18 03:49:13;;;;;;;0.40;0.40;;;2.50;99.90;;;;;;5013909;28;20547;-91
2022/11/18 03:51:43;;;;;;;0.40;0.40;;;2.50;99.90;;;;;;5026522;28;20446;-94
2022/11/18 03:54:19;;;;;;;0.40;0.40;;;2.50;99.90;;;;;;4931331;28;20525;-95
2022/11/18 03:56:55;;;;;;;0.50;0.50;;;2.40;99.90;;;;;;4928742;28;20448;-95
2022/11/18 03:59:28;;;;;;;0.30;0.30;;;2.40;99.90;;;;;;4930165;28;20451;-94
2022/11/18 04:02:23;;;;;;;0.40;0.40;;;2.40;99.90;;;;;;4996701;28;20459;-92
2022/11/18 04:04:51;;;;;;;0.40;0.40;;;2.30;99.90;;;;;;4931210;28;20487;-96
2022/11/18 04:07:33;;;;;;;0.50;0.50;;;2.20;99.90;;;;;;5004174;28;20465;-94
2022/11/18 04:10:15;;;;;;;0.50;0.50;;;2.20;99.90;;;;;;5026895;28;20454;-96
2022/11/18 04:12:50;;;;;;;0.50;0.50;;;2.10;99.90;;;;;;4935106;28;20439;-93
2022/11/18 04:15:15;;;;;;;0.50;0.50;;;2.10;99.90;;;;;;4931509;28;20450;-93
2022/11/18 04:17:41;;;;;;;0.40;0.40;;;2.00;99.90;;;;;;4992831;28;20563;-93
2022/11/18 04:20:14;;;;;;;0.50;0.50;;;2.00;99.90;;;;;;4929846;29;20187;-94
2022/11/18 04:22:40;;;;;;;0.40;0.40;;;2.00;99.90;;;;;;4932741;29;20423;-95
2022/11/18 04:25:06;;;;;;;0.40;0.40;;;2.00;99.90;;;;;;4932046;28;20465;-95
2022/11/18 04:27:31;;;;;;;0.50;0.50;;;2.00;99.90;;;;;;4931853;28;20241;-95
2022/11/18 04:29:56;;;;;;;0.40;0.40;;;2.00;99.90;;;;;;4942855;28;20291;-94
2022/11/18 04:32:22;;;;;;;0.40;0.40;;;2.00;99.90;;;;;;4928991;29;20200;-93
2022/11/18 04:34:47;;;;;;;0.50;0.50;;;2.00;99.90;;;;;;4957086;28;20625;-95
2022/11/18 04:37:13;;;;;;;0.50;0.50;;;2.00;99.90;;;;;;4934789;28;20192;-92
2022/11/18 04:39:38;;;;;;;0.50;0.50;;;2.10;99.90;;;;;;4995842;28;20294;-91
2022/11/18 04:42:04;;;;;;;0.40;0.40;;;2.00;99.90;;;;;;4992948;28;20186;-94
2022/11/18 04:44:32;;;;;;;0.43;0.43;;;2.10;99.90;;;;;;4983449;28;20562;-93
2022/11/18 04:47:00;;;;;;;0.50;0.50;;;2.00;99.90;;;;;;4976607;28;20308;-94
2022/11/18 04:49:26;;;;;;;0.50;0.50;;;2.10;99.90;;;;;;4946188;28;20498;-94
2022/11/18 04:51:52;;;;;;;0.40;0.40;;;2.10;99.90;;;;;;4933340;28;20443;-92
2022/11/18 04:54:19;;;;;;;0.47;0.47;;;2.20;99.90;;;;;;4933637;29;20187;-93
2022/11/18 04:56:45;;;;;;;0.50;0.50;;;2.20;99.90;;;;;;4967457;28;20454;-91
2022/11/18 04:59:12;;;;;;;0.40;0.40;;;2.30;99.90;;;;;;4993738;28;20546;-93
2022/11/18 05:01:38;;;;;;;0.60;0.60;;;2.30;99.90;;;;;;4934311;28;20451;-93
2022/11/18 05:04:05;;;;;;;0.50;0.50;;;2.30;99.90;;;;;;4933756;28;20509;-93
2022/11/18 05:06:32;;;;;;;0.50;0.50;;;2.30;99.90;;;;;;4933934;28;20223;-95
2022/11/18 05:08:58;;;;;;;0.43;0.43;;;2.30;99.90;;;;;;4966365;28;20530;-93
2022/11/18 05:14:09;;;;;;;0.40;0.40;;;2.30;99.90;;;;;;4930408;29;20439;-92
2022/11/18 05:16:35;;;;;;;0.40;0.40;;;2.30;99.90;;;;;;4933584;29;20447;-91
2022/11/18 05:19:01;;;;;;;0.47;0.47;;;2.20;99.90;;;;;;4979661;28;20216;-95
2022/11/18 05:21:26;;;;;;;0.50;0.50;;;2.20;99.90;;;;;;4965251;28;20208;-94
2022/11/18 05:23:52;;;;;;;0.40;0.40;;;2.20;99.90;;;;;;4982237;28;20452;-94
2022/11/18 05:26:17;;;;;;;0.50;0.50;;;2.10;99.90;;;;;;4962062;28;20712;-95
2022/11/18 05:28:43;;;;;;;0.50;0.50;;;2.20;99.90;;;;;;4928287;28;20263;-94
2022/11/18 05:31:11;;;;;;;0.50;0.50;;;2.10;99.90;;;;;;4935306;28;20191;-94
2022/11/18 05:33:37;;;;;;;0.50;0.50;;;2.10;99.90;;;;;;4962838;28;20644;-93
2022/11/18 05:36:10;;;;;;;0.50;0.50;;;2.00;99.90;;;;;;4983789;28;20442;-96
2022/11/18 05:38:36;;;;;;;0.50;0.50;;;1.90;99.90;;;;;;4932585;29;20202;-94
2022/11/18 05:41:02;;;;;;;0.60;0.60;;;1.90;99.90;;;;;;4937141;28;20545;-95
2022/11/18 05:43:29;;;;;;;0.50;0.50;;;1.90;99.90;;;;;;4936357;28;20203;-94
2022/11/18 05:45:54;;;;;;;0.40;0.40;;;1.90;99.90;;;;;;4931365;28;20914;-93
2022/11/18 05:48:20;;;;;;;0.50;0.50;;;1.90;99.90;;;;;;4932887;28;20487;-94
2022/11/18 05:50:50;;;;;;;0.37;0.37;;;1.90;99.90;;;;;;4945928;28;20176;-95
2022/11/18 05:53:19;;;;;;;0.50;0.50;;;1.90;99.90;;;;;;4933556;28;20447;-93
2022/11/18 05:56:20;;;;;;;0.50;0.50;;;1.90;99.90;;;;;;4949185;28;20479;-93
2022/11/18 05:58:45;;;;;;;0.40;0.40;;;1.90;99.90;;;;;;5012207;28;20967;-94
2022/11/18 06:01:13;;;;;;;0.50;0.50;;;1.90;99.90;;;;;;4998303;28;20445;-94
2022/11/18 06:03:39;;;;;;;0.40;0.40;;;1.90;99.90;;;;;;4929779;28;20309;-93
2022/11/18 06:06:07;;;;;;;0.50;0.50;;;1.90;99.90;;;;;;4937862;28;20456;-96
2022/11/18 06:08:40;;;;;;;0.40;0.40;;;1.90;99.90;;;;;;4932955;28;20482;-92
2022/11/18 06:11:11;;;;;;;0.40;0.40;;;1.90;99.90;;;;;;4931504;28;20538;-94
2022/11/18 06:13:43;;;;;;;0.50;0.50;;;1.80;99.90;;;;;;4936234;28;20530;-94
2022/11/18 06:16:11;;;;;;;0.43;0.43;;;1.80;99.90;;;;;;4930009;28;21111;-94
2022/11/18 06:18:37;;;;;;;0.50;0.50;;;1.80;99.90;;;;;;4933301;29;20458;-92
2022/11/18 06:21:04;;;;;;;0.40;0.40;;;1.90;99.90;;;;;;4929224;28;20443;-92
2022/11/18 06:23:41;;;;;;;0.40;0.40;;;1.90;99.90;;;;;;4932384;28;20505;-93
2022/11/18 06:26:08;;;;;;;0.50;0.50;;;1.80;99.90;;;;;;4932529;28;20459;-93
2022/11/18 06:28:35;;;;;;;0.37;0.37;;;1.80;99.90;;;;;;4945980;28;20486;-92
2022/11/18 06:31:00;;;;;;;0.50;0.50;;;1.80;99.90;;;;;;4925638;28;20451;-91
2022/11/18 06:33:26;;;;;;;0.50;0.50;;;1.80;99.90;;;;;;4929463;28;20470;-94
2022/11/18 06:35:51;;;;;;;0.40;0.40;;;1.90;99.90;;;;;;4961424;28;20198;-95
2022/11/18 06:38:17;;;;;;;0.47;0.47;;;2.00;99.90;;;;;;4954096;28;20647;-96
2022/11/18 06:40:43;;;;;;;0.50;0.50;;;1.90;99.90;;;;;;4934872;28;20693;-94
2022/11/18 06:48:43;;;;;;;0.50;0.50;;;1.80;99.90;;;;;;4931298;28;20582;-91
2022/11/18 06:51:09;;;;;;;0.50;0.50;;;1.80;99.90;;;;;;4975102;28;20538;-92
2022/11/18 06:53:35;;;;;;;0.50;0.50;;;1.90;99.90;;;;;;4930987;28;20219;-94
2022/11/18 06:56:06;;;;;;;0.40;0.40;;;1.90;99.90;;;;;;4932476;28;20219;-95
2022/11/18 06:58:31;;;;;;;0.50;0.50;;;1.90;99.90;;;;;;4994844;28;20200;-94
2022/11/18 07:00:57;;;;;;;0.50;0.50;;;1.80;99.90;;;;;;4937210;28;20450;-92
2022/11/18 07:03:23;;;;;;;0.50;0.50;;;1.90;99.90;;;;;;4931530;28;20225;-93
2022/11/18 07:05:48;;;;;;;0.50;0.50;;;1.80;99.90;;;;;;4932125;28;20207;-91
2022/11/18 07:08:14;;;;;;;0.50;0.50;;;1.80;99.90;;;;;;4931480;28;20299;-93
2022/11/18 07:10:40;;;;;;;0.60;0.60;;;1.80;99.90;;;;;;4938766;28;20660;-91
2022/11/18 07:13:05;;;;;;;0.50;0.50;;;1.90;99.90;;;;;;4995800;28;20187;-95
2022/11/18 07:15:32;;;;;;;0.50;0.50;;;1.90;99.90;;;;;;4947761;28;20639;-94
2022/11/18 07:17:59;;;;;;;0.60;0.60;;;1.90;99.90;;;;;;4930390;28;20192;-96
2022/11/18 07:20:25;;;;;;;0.50;0.50;;;1.90;99.90;;;;;;4932050;28;20456;-95
2022/11/18 07:22:53;;;;;;;0.40;0.40;;;1.90;99.90;;;;;;4991479;28;20451;-92
2022/11/18 07:25:19;;;;;;;0.40;0.40;;;1.90;99.90;;;;;;4928976;28;20195;-92
2022/11/18 07:27:45;;;;;;;0.40;0.40;;;1.80;99.90;;;;;;4932491;28;20900;-94
2022/11/18 07:30:11;;;;;;;0.50;0.50;;;1.90;99.90;;;;;;4940862;28;20214;-87
2022/11/18 07:32:36;;;;;;;0.40;0.40;;;1.90;99.90;;;;;;4970550;28;20192;-91
2022/11/18 07:35:02;;;;;;;0.50;0.50;;;1.80;99.90;;;;;;4931529;28;20508;-89
2022/11/18 07:37:30;;;;;;;0.50;0.50;;;1.90;99.90;;;;;;4931336;28;20223;-89
2022/11/18 07:40:02;;;;;;;0.50;0.50;;;1.80;99.90;;;;;;4964189;28;20279;-91
2022/11/18 07:42:28;;;;;;;0.50;0.50;;;1.80;99.90;;;;;;5010954;28;20438;-92
2022/11/18 07:44:53;;;;;;;0.50;0.50;;;1.90;99.90;;;;;;4993017;28;20995;-88
2022/11/18 07:47:19;;;;;;;0.50;0.50;;;1.80;99.90;;;;;;4987606;28;20207;-90
2022/11/18 07:49:44;;;;;;;0.50;0.50;;;1.80;99.90;;;;;;4990990;28;20254;-89
2022/11/18 07:52:10;;;;;;;0.50;0.50;;;1.80;99.90;;;;;;4926106;28;20241;-89
2022/11/18 07:54:35;;;;;;;0.50;0.50;;;1.90;99.90;;;;;;4926427;28;20200;-88
2022/11/18 07:57:01;;;;;;;0.60;0.60;;;1.90;99.90;;;;;;4927897;29;20217;-91
2022/11/18 07:59:26;;;;;;;0.50;0.50;;;1.90;99.90;;;;;;4927642;28;20195;-88
2022/11/18 08:01:52;;;;;;;0.50;0.50;;;2.00;99.90;;;;;;4921736;28;20653;-91
2022/11/18 08:04:17;;;;;;;0.40;0.40;;;2.10;99.90;;;;;;4926031;28;20235;-85
2022/11/18 08:06:43;;;;;;;0.50;0.50;;;2.20;99.90;;;;;;4988798;28;20200;-88
2022/11/18 08:09:08;;;;;;;0.40;0.40;;;2.30;99.90;;;;;;4938197;28;20330;-89
2022/11/18 08:11:34;;;;;;;0.50;0.50;;;2.40;99.90;;;;;;4933705;28;20196;-87
2022/11/18 08:14:00;;;;;;;0.50;0.50;;;2.50;99.90;;;;;;4989391;28;21890;-88
2022/11/18 08:16:26;;;;;;;0.40;0.40;;;2.60;99.90;;;;;;4995651;28;20473;-88
2022/11/18 08:18:52;;;;;;;0.50;0.50;;;2.70;99.90;;;;;;4926895;28;20203;-90
2022/11/18 08:21:19;;;;;;;0.47;0.47;;;2.80;99.90;;;;;;4928973;28;20207;-89
2022/11/18 08:23:50;;;;;;;0.40;0.40;;;2.90;99.90;;;;;;4931319;28;20455;-89
2022/11/18 08:26:16;;;;;;;0.40;0.40;;;3.00;99.90;;;;;;4995952;28;20451;-89
2022/11/18 08:28:42;;;;;;;0.30;0.30;;;3.10;99.90;;;;;;4932191;28;21002;-92
2022/11/18 08:31:09;;;;;;;0.40;0.40;;;3.20;99.90;;;;;;4934406;28;20188;-88
2022/11/18 08:33:35;;;;;;;0.40;0.40;;;3.20;99.90;;;;;;4932111;29;20453;-91
2022/11/18 08:36:16;;;;;;;0.40;0.40;;;3.30;99.90;;;;;;4936831;28;20455;-90
2022/11/18 08:38:41;;;;;;;0.40;0.40;;;3.40;99.90;;;;;;4929015;28;20190;-91
2022/11/18 08:41:11;;;;;;;0.43;0.43;;;3.50;99.90;;;;;;4959749;28;20459;-90
2022/11/18 08:43:38;;;;;;;0.50;0.50;;;3.50;99.90;;;;;;4931994;29;20199;-92
2022/11/18 08:46:03;;;;;;;0.40;0.40;;;3.70;99.90;;;;;;4995052;28;20862;-88
2022/11/18 08:48:29;;;;;;;0.43;0.43;;;3.80;99.90;;;;;;4931324;28;20565;-91
2022/11/18 08:50:56;;;;;;;0.30;0.30;;;3.90;99.90;;;;;;5010914;28;20185;-90
2022/11/18 08:53:22;;;;;;;0.40;0.40;;;4.00;99.90;;;;;;4931172;28;20203;-91
2022/11/18 08:55:54;;;;;;;0.40;0.40;;;4.00;99.90;;;;;;4934122;28;20461;-90
2022/11/18 08:58:20;;;;;;;0.40;0.40;;;4.10;99.90;;;;;;4935641;28;20746;-88
2022/11/18 09:00:45;;;;;;;0.40;0.40;;;4.20;99.90;;;;;;4984126;28;20449;-91
2022/11/18 09:03:11;;;;;;;0.40;0.40;;;4.20;99.90;;;;;;4928304;29;20191;-92
2022/11/18 09:05:36;;;;;;;0.30;0.30;;;4.30;99.90;;;;;;4994900;28;20231;-88
2022/11/18 09:08:02;;;;;;;0.40;0.40;;;4.30;99.90;;;;;;4996768;28;20266;-89
2022/11/18 09:10:27;;;;;;;0.37;0.37;;;4.20;99.90;;;;;;5000844;28;20207;-91
2022/11/18 09:12:53;;;;;;;0.40;0.40;;;4.30;99.90;;;;;;5007020;28;20286;-89
2022/11/18 09:15:18;;;;;;;0.40;0.40;;;4.50;99.90;;;;;;4995099;28;20192;-90
2022/11/18 09:17:44;;;;;;;0.40;0.40;;;4.40;99.90;;;;;;5008092;28;20250;-89
2022/11/18 09:20:11;;;;;;;0.40;0.40;;;4.50;99.90;;;;;;4920689;28;20192;-89
2022/11/18 09:22:38;;;;;;;0.40;0.40;;;4.60;99.90;;;;;;4994406;28;20283;-90
2022/11/18 09:25:03;;;;;;;0.40;0.40;;;4.60;99.90;;;;;;4921969;28;20452;-89
2022/11/18 09:27:29;;;;;;;0.40;0.40;;;4.70;99.90;;;;;;4929396;29;20439;-90
2022/11/18 09:29:54;;;;;;;0.40;0.40;;;4.70;99.90;;;;;;4932133;29;20447;-88
2022/11/18 09:32:20;;;;;;;0.30;0.30;;;4.60;99.90;;;;;;4931880;29;20195;-90
2022/11/18 09:34:45;;;;;;;0.40;0.40;;;4.80;99.90;;;;;;4931117;29;20208;-91
2022/11/18 09:37:11;;;;;;;0.30;0.30;;;4.90;99.90;;;;;;4991767;28;20188;-88
2022/11/18 09:39:36;;;;;;;0.40;0.40;;;5.10;99.90;;;;;;4926754;28;20194;-88
2022/11/18 09:42:14;;;;;;;0.30;0.30;;;5.30;99.90;;;;;;4929193;29;20569;-90
2022/11/18 09:45:00;;;;;;;0.40;0.40;;;5.10;99.90;;;;;;4932015;29;20190;-88
2022/11/18 09:47:32;;;;;;;0.30;0.30;;;5.10;99.90;;;;;;4926402;28;20534;-92
2022/11/18 09:50:00;;;;;;;0.40;0.40;;;5.20;99.90;;;;;;4997422;28;20463;-92
2022/11/18 09:52:40;;;;;;;0.40;0.40;;;5.50;99.90;;;;;;4930704;29;20451;-91
2022/11/18 09:55:15;;;;;;;0.40;0.40;;;5.50;99.90;;;;;;5014194;28;20501;-90
2022/11/18 09:57:59;;;;;;;0.30;0.30;;;5.60;99.90;;;;;;4930051;29;20443;-90
2022/11/18 10:00:29;;;;;;;0.40;0.40;;;5.40;99.90;;;;;;4929067;28;20457;-90
2022/11/18 10:03:15;;;;;;;0.40;0.40;;;5.60;99.90;;;;;;4924905;28;20451;-91
2022/11/18 10:05:48;;;;;;;0.30;0.30;;;5.80;99.90;;;;;;4930931;29;20486;-90
2022/11/18 10:08:31;;;;;;;0.30;0.30;;;6.00;99.90;;;;;;4929518;28;20491;-90
2022/11/18 10:11:06;;;;;;;0.33;0.33;;;5.90;99.90;;;;;;4927296;28;20787;-91
2022/11/18 10:13:47;;;;;;;0.30;0.30;;;6.00;99.90;;;;;;4930922;28;20458;-89
2022/11/18 10:16:35;;;;;;;0.30;0.30;;;6.30;99.90;;;;;;4926890;28;20845;-90
2022/11/18 10:19:11;;;;;;;0.30;0.30;;;6.60;99.90;;;;;;4996316;28;20438;-88
2022/11/18 10:22:23;;;;;;;0.30;0.30;;;6.50;99.90;;;;;;4931251;28;20453;-88
2022/11/18 10:24:51;;;;;;;0.30;0.30;;;6.60;99.90;;;;;;4931212;28;20447;-88
2022/11/18 10:27:17;;;;;;;0.30;0.30;;;6.80;99.90;;;;;;4935951;28;20451;-85
2022/11/18 10:29:52;;;;;;;0.30;0.30;;;6.80;99.90;;;;;;4929926;29;20495;-88
2022/11/18 10:32:17;;;;;;;0.30;0.30;;;6.50;99.90;;;;;;4926774;28;20435;-86
2022/11/18 10:34:52;;;;;;;0.30;0.30;;;6.40;99.90;;;;;;4927617;29;20482;-87
2022/11/18 10:37:29;;;;;;;0.30;0.30;;;6.70;99.90;;;;;;4971982;28;20242;-89
2022/11/18 10:39:57;;;;;;;0.33;0.33;;;6.90;99.90;;;;;;4919040;28;20447;-88
2022/11/18 10:42:34;;;;;;;0.30;0.30;;;7.00;99.90;;;;;;4989327;28;20447;-89
2022/11/18 10:45:21;;;;;;;0.30;0.30;;;6.90;99.90;;;;;;4923098;29;20460;-88
2022/11/18 10:48:07;;;;;;;0.30;0.30;;;6.80;99.90;;;;;;4992539;28;20478;-88
2022/11/18 10:50:38;;;;;;;0.30;0.30;;;7.30;99.90;;;;;;4921422;28;21022;-89
2022/11/18 10:53:06;;;;;;;0.30;0.30;;;6.80;99.90;;;;;;4923874;28;20440;-89
2022/11/18 10:55:32;;;;;;;0.30;0.30;;;6.80;99.90;;;;;;4921355;28;20804;-87
2022/11/18 10:58:08;;;;;;;0.30;0.30;;;7.10;99.90;;;;;;4928858;29;20940;-88
2022/11/18 11:00:43;;;;;;;0.30;0.30;;;7.80;99.90;;;;;;4930140;28;21040;-89
2022/11/18 11:03:22;;;;;;;0.30;0.30;;;8.00;99.90;;;;;;4928486;28;20462;-89
2022/11/18 11:06:08;;;;;;;0.30;0.30;;;8.20;99.90;;;;;;4996330;28;20460;-88
2022/11/18 11:08:34;;;;;;;0.30;0.30;;;7.80;99.90;;;;;;4924717;28;20790;-88
2022/11/18 11:10:59;;;;;;;0.30;0.30;;;7.80;99.90;;;;;;4929497;28;20513;-85
2022/11/18 11:13:28;;;;;;;0.30;0.30;;;8.40;99.90;;;;;;4927627;29;20674;-84
2022/11/18 11:15:58;;;;;;;0.20;0.20;;;8.60;99.90;;;;;;4926471;28;20187;-85
2022/11/18 11:18:40;;;;;;;0.20;0.20;;;9.30;99.90;;;;;;4918871;28;20448;-86
2022/11/18 11:21:21;;;;;;;0.20;0.20;;;9.70;99.90;;;;;;4920536;29;20828;-86
2022/11/18 11:23:47;;;;;;;0.20;0.20;;;9.20;99.90;;;;;;4927378;28;20447;-82
2022/11/18 11:26:53;;;;;;;0.20;0.20;;;9.30;99.90;;;;;;4925930;28;20459;-85
2022/11/18 11:29:31;;;;;;;0.20;0.20;;;8.30;99.90;;;;;;4923517;28;20298;-85
2022/11/18 11:31:59;;;;;;;0.20;0.20;;;9.00;99.90;;;;;;4930973;28;20443;-86
2022/11/18 11:34:50;;;;;;;0.20;0.20;;;8.80;99.90;;;;;;4985366;28;20482;-87
2022/11/18 11:37:29;;;;;;;0.20;0.20;;;8.40;99.90;;;;;;4924792;28;20533;-84
2022/11/18 11:40:03;;;;;;;0.20;0.20;;;8.60;99.90;;;;;;4945500;28;20452;-83
2022/11/18 11:42:41;;;;;;;0.20;0.20;;;8.90;99.90;;;;;;4991239;28;20442;-85
2022/11/18 11:45:25;;;;;;;0.20;0.20;;;8.90;99.90;;;;;;4935001;28;20447;-85
2022/11/18 11:48:17;;;;;;;0.20;0.20;;;8.80;99.90;;;;;;4997267;28;20475;-85
2022/11/18 11:50:52;;;;;;;0.10;0.10;;;8.60;99.90;;;;;;4943113;28;20474;-83
2022/11/18 11:53:58;;;;;;;0.10;0.10;;;8.60;99.90;;;;;;5011365;28;20977;-84
2022/11/18 11:56:34;;;;;;;0.20;0.20;;;8.50;99.90;;;;;;4993356;28;20514;-83
2022/11/18 11:59:32;;;;;;;0.20;0.20;;;8.50;99.90;;;;;;4927149;28;20794;-87
2022/11/18 12:02:00;;;;;;;0.20;0.20;;;8.70;99.90;;;;;;4964256;28;20467;-83
2022/11/18 12:04:34;;;;;;;0.20;0.20;;;8.90;99.90;;;;;;4928036;28;20565;-85
2022/11/18 12:07:01;;;;;;;0.20;0.20;;;8.40;99.90;;;;;;4974022;28;21338;-85
2022/11/18 12:09:42;;;;;;;0.20;0.20;;;9.10;99.90;;;;;;4982219;28;20991;-83
2022/11/18 12:12:35;;;;;;;0.20;0.20;;;9.40;99.90;;;;;;4987936;28;20529;-84
2022/11/18 12:15:42;;;;;;;0.20;0.20;;;8.80;99.90;;;;;;4932722;28;20444;-84
2022/11/18 12:18:51;;;;;;;0.20;0.20;;;8.80;99.90;;;;;;4928118;28;20496;-84
2022/11/18 12:21:42;;;;;;;0.20;0.20;;;9.90;99.90;;;;;;4966127;28;20461;-84
2022/11/18 12:24:35;;;;;;;0.10;0.10;;;9.80;99.90;;;;;;4940424;28;20929;-85
2022/11/18 12:27:11;;;;;;;0.10;0.10;;;10.10;99.90;;;;;;4934556;28;20452;-84
2022/11/18 12:30:00;;;;;;;0.10;0.10;;;10.10;99.90;;;;;;4943973;28;20483;-83
2022/11/18 12:32:41;;;;;;;0.10;0.10;;;10.30;99.90;;;;;;4925577;28;20798;-85
2022/11/18 12:35:12;;;;;;;0.10;0.10;;;10.00;99.90;;;;;;4927505;29;20763;-84
2022/11/18 12:37:50;;;;;;;0.10;0.10;;;10.30;99.90;;;;;;4928268;29;20523;-84
2022/11/18 12:40:34;;;;;;;0.10;0.10;;;9.90;99.90;;;;;;4932764;28;20487;-84
2022/11/18 12:45:44;;;;;;;0.10;0.10;;;10.10;99.90;;;;;;4934567;28;20445;-84
2022/11/18 12:48:22;;;;;;;0.10;0.10;;;10.40;99.90;;;;;;4986954;28;20479;-83
2022/11/18 12:50:56;;;;;;;0.10;0.10;;;10.40;99.90;;;;;;4979943;28;20187;-84
2022/11/18 12:53:48;;;;;;;0.10;0.10;;;10.20;99.90;;;;;;4926913;28;20486;-83
2022/11/18 12:56:16;;;;;;;0.10;0.10;;;10.60;99.90;;;;;;5004902;28;20522;-84
2022/11/18 12:58:57;;;;;;;0.10;0.10;;;10.20;99.90;;;;;;4927124;28;20474;-85
2022/11/18 13:01:42;;;;;;;0.10;0.10;;;9.90;99.90;;;;;;4927049;28;20540;-83
2022/11/18 13:04:15;;;;;;;0.10;0.10;;;10.00;99.90;;;;;;4927562;28;20576;-82
2022/11/18 13:06:41;;;;;;;0.10;0.10;;;10.50;99.90;;;;;;4926852;28;20772;-82
2022/11/18 13:09:16;;;;;;;0.10;0.10;;;9.90;99.90;;;;;;4990632;28;20510;-82
2022/11/18 13:12:00;;;;;;;0.10;0.10;;;10.20;99.60;;;;;;4998037;28;20819;-84
2022/11/18 13:17:53;;;;;;;0.10;0.10;;;10.40;99.90;;;;;;4950460;28;21074;-86
2022/11/18 13:20:39;;;;;;;0.10;0.10;;;10.40;99.90;;;;;;5007210;28;20462;-82
2022/11/18 13:25:52;;;;;;;0.10;0.10;;;9.90;99.90;;;;;;4928150;28;21024;-82
2022/11/18 13:28:37;;;;;;;0.10;0.10;;;11.60;99.90;;;;;;4932037;28;20462;-85
2022/11/18 13:31:21;;;;;;;0.10;0.10;;;11.90;99.30;;;;;;4928973;29;20455;-85
2022/11/18 13:33:47;;;;;;;0.10;0.10;;;11.00;98.50;;;;;;4953252;28;20447;-83
2022/11/18 13:36:22;;;;;;;0.10;0.10;;;11.60;98.30;;;;;;4929943;28;20461;-85
2022/11/18 13:39:01;;;;;;;0.10;0.10;;;11.50;98.80;;;;;;4925856;28;20950;-85
2022/11/18 13:41:34;;;;;;;0.10;0.10;;;10.90;98.60;;;;;;4928396;29;20512;-83